Time;durP1;ratioP1;P1;durP2;ratioP2;P2;SDS_P1;SDS_P2;PMS_P1;PMS_P2;Temp;Humidity;BMP_temperature;BMP_pressure;BME280_temperature;BME280_humidity;BME280_pressure;Samples;Min_cycle;Max_cycle;Signal;HPM_P1;HPM_P2
2021/12/14 00:00:36;;;;;;;106.47;9.30;;;-0.30;99.90;;;;;;5141691;27;20412;-80
2021/12/14 00:03:03;;;;;;;81.67;7.40;;;-0.30;99.90;;;;;;5141522;27;20475;-81
2021/12/14 00:05:30;;;;;;;97.57;10.50;;;-0.30;99.90;;;;;;5141350;27;20531;-80
2021/12/14 00:08:00;;;;;;;84.83;6.57;;;-0.30;99.90;;;;;;5143075;27;20448;-80
2021/12/14 00:13:02;;;;;;;66.73;6.77;;;-0.30;99.90;;;;;;5143016;27;20416;-80
2021/12/14 00:15:29;;;;;;;101.37;8.23;;;-0.30;99.90;;;;;;5143049;27;20481;-80
2021/12/14 00:17:58;;;;;;;58.10;6.77;;;-0.40;99.90;;;;;;5141348;27;20431;-80
2021/12/14 00:20:40;;;;;;;32.90;6.27;;;0.00;99.90;;;;;;5141615;27;20426;-81
2021/12/14 00:25:41;;;;;;;16.87;6.03;;;-0.40;99.90;;;;;;5143548;27;20656;-80
2021/12/14 00:28:19;;;;;;;14.97;5.30;;;-0.40;99.90;;;;;;5143245;28;20481;-80
2021/12/14 00:30:46;;;;;;;18.00;5.53;;;-0.40;99.90;;;;;;5144246;28;20893;-80
2021/12/14 00:33:15;;;;;;;11.30;4.93;;;-0.40;99.90;;;;;;5145233;28;20414;-80
2021/12/14 00:35:43;;;;;;;11.67;5.23;;;-0.40;99.90;;;;;;5143522;28;20435;-80
2021/12/14 00:38:11;;;;;;;7.17;4.63;;;0.30;99.90;;;;;;5143903;28;20415;-80
2021/12/14 00:40:41;;;;;;;6.60;4.00;;;-0.60;99.90;;;;;;5145640;27;20488;-81
2021/12/14 00:43:07;;;;;;;6.27;4.37;;;-0.60;99.90;;;;;;5146974;27;20764;-80
2021/12/14 00:45:37;;;;;;;5.77;4.33;;;-0.60;99.90;;;;;;5153380;27;20880;-80
2021/12/14 00:48:04;;;;;;;5.23;3.90;;;-0.60;99.90;;;;;;5158759;27;20451;-80
2021/12/14 00:50:32;;;;;;;7.40;4.07;;;-0.60;99.90;;;;;;5158080;27;20977;-80
2021/12/14 00:52:58;;;;;;;5.23;4.07;;;-0.70;99.90;;;;;;5158039;27;20419;-80
2021/12/14 00:55:30;;;;;;;5.23;4.13;;;-0.70;99.90;;;;;;5152134;27;20435;-80
2021/12/14 00:57:56;;;;;;;4.97;4.30;;;0.10;99.90;;;;;;5142115;27;20173;-81
2021/12/14 01:00:32;;;;;;;5.50;3.87;;;-0.60;99.90;;;;;;5142936;27;20412;-80
2021/12/14 01:03:00;;;;;;;3.83;3.33;;;-0.60;99.90;;;;;;5141677;27;20410;-80
2021/12/14 01:05:31;;;;;;;4.60;3.70;;;-0.60;99.90;;;;;;5141484;27;20473;-80
2021/12/14 01:07:58;;;;;;;5.90;4.00;;;-0.60;99.90;;;;;;5145823;27;20456;-80
2021/12/14 01:10:30;;;;;;;4.20;3.77;;;-0.40;99.90;;;;;;5145771;27;20412;-81
2021/12/14 01:13:01;;;;;;;5.23;3.60;;;-0.50;99.90;;;;;;5145571;27;20468;-80
2021/12/14 01:15:59;;;;;;;4.37;3.53;;;-0.50;99.90;;;;;;5145363;27;20485;-80
2021/12/14 01:24:24;;;;;;;3.67;3.03;;;-0.50;99.90;;;;;;5124567;27;20473;-80
2021/12/14 01:26:51;;;;;;;4.60;3.30;;;-0.50;99.90;;;;;;5145120;27;20475;-80
2021/12/14 01:29:18;;;;;;;5.97;3.90;;;-0.50;99.90;;;;;;5144735;27;20774;-81
2021/12/14 01:31:47;;;;;;;6.17;4.47;;;-0.50;99.90;;;;;;5145191;27;20414;-81
2021/12/14 01:34:21;;;;;;;6.50;4.47;;;-0.50;99.90;;;;;;5145795;27;20450;-83
2021/12/14 01:36:54;;;;;;;6.33;4.20;;;-0.40;99.90;;;;;;5147164;27;20391;-81
2021/12/14 01:41:59;;;;;;;4.93;3.50;;;-0.40;99.90;;;;;;5146146;27;20472;-80
2021/12/14 01:44:31;;;;;;;7.43;3.63;;;-0.50;99.90;;;;;;5145160;27;20526;-81
2021/12/14 01:47:08;;;;;;;6.43;3.90;;;1.10;99.90;;;;;;5145008;27;20484;-81
2021/12/14 01:49:34;;;;;;;6.03;4.13;;;-0.60;99.90;;;;;;5144962;27;20977;-80
2021/12/14 01:52:06;;;;;;;5.80;4.50;;;-0.40;99.90;;;;;;5143652;27;20458;-80
2021/12/14 01:54:38;;;;;;;5.63;3.83;;;-0.50;99.90;;;;;;5144837;27;20247;-81
2021/12/14 01:57:09;;;;;;;5.13;3.83;;;-0.30;99.90;;;;;;5143551;27;20484;-80
2021/12/14 01:59:38;;;;;;;4.97;3.80;;;-0.50;99.90;;;;;;5144847;27;20505;-80
2021/12/14 02:04:44;;;;;;;6.87;5.13;;;-0.50;99.90;;;;;;5145820;27;20539;-80
2021/12/14 02:07:12;;;;;;;6.43;4.57;;;-0.40;99.90;;;;;;5144766;27;20444;-80
2021/12/14 02:09:39;;;;;;;7.37;4.57;;;-0.40;99.90;;;;;;5143898;27;20428;-81
2021/12/14 02:12:15;;;;;;;6.80;5.23;;;-0.40;99.90;;;;;;5144753;27;20410;-81
2021/12/14 02:14:42;;;;;;;6.53;4.73;;;-0.30;99.90;;;;;;5144914;27;20422;-80
2021/12/14 02:17:11;;;;;;;5.30;4.37;;;-0.40;99.90;;;;;;5143982;27;20412;-81
2021/12/14 02:19:39;;;;;;;6.13;4.30;;;-0.40;99.90;;;;;;5142889;27;20412;-80
2021/12/14 02:22:07;;;;;;;6.43;4.30;;;-0.40;99.90;;;;;;5144240;27;20770;-81
2021/12/14 02:24:34;;;;;;;5.67;4.27;;;-0.40;99.90;;;;;;5143208;27;20448;-80
2021/12/14 02:27:00;;;;;;;5.77;4.10;;;-0.50;99.90;;;;;;5144703;27;20502;-80
2021/12/14 02:29:52;;;;;;;6.53;4.97;;;0.20;99.90;;;;;;5142551;27;20493;-80
2021/12/14 02:32:22;;;;;;;5.67;4.37;;;-0.50;99.90;;;;;;5138540;27;20419;-80
2021/12/14 02:35:00;;;;;;;5.27;4.40;;;-0.50;99.90;;;;;;5143253;27;20932;-80
2021/12/14 02:37:37;;;;;;;7.50;4.87;;;-0.20;99.90;;;;;;5143683;27;20411;-80
2021/12/14 02:40:16;;;;;;;5.53;4.20;;;0.00;99.90;;;;;;5142609;27;20964;-80
2021/12/14 02:42:43;;;;;;;5.27;4.00;;;-0.50;99.90;;;;;;5143591;27;20425;-80
2021/12/14 02:45:09;;;;;;;6.27;4.53;;;-0.50;99.90;;;;;;5144928;27;20519;-80
2021/12/14 02:47:35;;;;;;;5.10;4.20;;;0.30;99.90;;;;;;5144726;27;20452;-79
2021/12/14 02:50:01;;;;;;;4.93;3.73;;;-0.40;99.90;;;;;;5149769;27;20439;-80
2021/12/14 02:52:35;;;;;;;5.77;4.70;;;-0.30;99.90;;;;;;5151120;27;20408;-79
2021/12/14 02:55:17;;;;;;;3.97;3.10;;;-0.40;99.90;;;;;;5151187;27;20937;-79
2021/12/14 02:57:51;;;;;;;3.20;2.90;;;-0.40;99.90;;;;;;5143974;27;20404;-80
2021/12/14 03:00:23;;;;;;;4.33;3.60;;;-0.50;99.90;;;;;;5143360;27;20494;-80
2021/12/14 03:02:50;;;;;;;4.77;3.13;;;-0.50;99.90;;;;;;5142343;27;20415;-80
2021/12/14 03:05:22;;;;;;;4.43;3.17;;;-0.50;99.90;;;;;;5142866;27;20462;-80
2021/12/14 03:07:54;;;;;;;4.47;3.17;;;-0.50;99.90;;;;;;5142308;27;20469;-80
2021/12/14 03:12:57;;;;;;;4.63;3.33;;;-0.60;99.90;;;;;;5142484;27;20392;-80
2021/12/14 03:15:36;;;;;;;4.37;2.97;;;-0.50;99.90;;;;;;5140694;27;20481;-80
2021/12/14 03:18:10;;;;;;;5.13;3.10;;;-0.40;99.90;;;;;;5141799;27;20415;-80
2021/12/14 03:20:43;;;;;;;4.20;3.07;;;-0.40;99.90;;;;;;5142541;27;20412;-80
2021/12/14 03:23:19;;;;;;;4.30;3.33;;;-0.40;99.90;;;;;;5142791;27;20411;-80
2021/12/14 03:25:49;;;;;;;4.00;2.60;;;-0.40;99.90;;;;;;5141200;27;20540;-80
2021/12/14 03:28:18;;;;;;;3.80;3.00;;;-0.40;99.90;;;;;;5141285;27;20825;-80
2021/12/14 03:30:58;;;;;;;3.07;2.80;;;-0.40;99.90;;;;;;5142814;27;20467;-80
2021/12/14 03:33:28;;;;;;;3.43;2.83;;;-0.40;99.90;;;;;;5143019;27;20431;-79
2021/12/14 03:36:03;;;;;;;4.30;3.30;;;-0.40;99.90;;;;;;5140878;27;20449;-80
2021/12/14 03:38:34;;;;;;;4.50;3.70;;;-0.40;99.90;;;;;;5141224;27;20411;-80
2021/12/14 03:41:03;;;;;;;4.20;3.47;;;-0.30;99.90;;;;;;5142222;27;20494;-79
2021/12/14 03:43:29;;;;;;;4.40;3.43;;;-0.40;99.90;;;;;;5142281;27;20504;-80
2021/12/14 03:45:57;;;;;;;6.00;3.67;;;1.10;99.90;;;;;;5140896;27;20500;-80
2021/12/14 03:48:27;;;;;;;4.50;3.70;;;-0.10;99.90;;;;;;5141484;27;20197;-80
2021/12/14 03:50:53;;;;;;;4.57;3.40;;;1.90;99.90;;;;;;5141948;27;20407;-80
2021/12/14 03:53:21;;;;;;;4.57;3.67;;;-0.40;99.90;;;;;;5139907;27;20449;-80
2021/12/14 03:55:53;;;;;;;3.77;3.17;;;-0.50;99.90;;;;;;5140227;27;20424;-80
2021/12/14 03:58:23;;;;;;;5.27;4.30;;;-0.50;99.90;;;;;;5140291;27;20746;-79
2021/12/14 04:00:56;;;;;;;6.40;3.53;;;-0.60;99.90;;;;;;5137255;27;20411;-79
2021/12/14 04:03:24;;;;;;;4.53;3.67;;;0.70;99.90;;;;;;5136329;27;20412;-79
2021/12/14 04:05:51;;;;;;;5.00;4.20;;;-0.70;99.90;;;;;;5135378;27;20470;-79
2021/12/14 04:08:22;;;;;;;4.50;3.60;;;-0.70;99.90;;;;;;5138514;27;20451;-80
2021/12/14 04:10:49;;;;;;;5.50;4.33;;;-0.20;99.90;;;;;;5140348;27;20892;-80
2021/12/14 04:13:20;;;;;;;5.50;3.90;;;-0.70;99.90;;;;;;5141040;27;20415;-80
2021/12/14 04:15:47;;;;;;;4.40;3.70;;;0.00;99.90;;;;;;5140400;27;20447;-80
2021/12/14 04:18:14;;;;;;;5.30;3.67;;;1.20;99.90;;;;;;5141448;27;20423;-80
2021/12/14 04:20:43;;;;;;;4.13;3.50;;;-0.80;99.90;;;;;;5141967;28;20423;-80
2021/12/14 04:23:16;;;;;;;4.27;3.40;;;-0.80;99.90;;;;;;5142444;28;20419;-80
2021/12/14 04:25:48;;;;;;;4.97;3.70;;;-0.90;99.90;;;;;;5140774;27;20443;-80
2021/12/14 04:28:18;;;;;;;4.03;3.40;;;-0.90;99.90;;;;;;5140875;28;20443;-80
2021/12/14 04:30:45;;;;;;;4.50;3.43;;;-0.90;99.90;;;;;;5138403;28;20420;-79
2021/12/14 04:33:15;;;;;;;5.03;3.47;;;-1.00;99.90;;;;;;5140580;28;20440;-80
2021/12/14 04:35:43;;;;;;;4.23;3.50;;;-1.00;99.90;;;;;;5139659;28;20438;-80
2021/12/14 04:38:17;;;;;;;4.53;3.40;;;-1.10;99.90;;;;;;5139629;28;20418;-80
2021/12/14 04:54:27;;;;;;;3.90;3.13;;;-0.90;99.90;;;;;;5139637;28;20493;-80
2021/12/14 04:56:54;;;;;;;3.27;2.97;;;-0.80;99.90;;;;;;5140089;28;20399;-80
2021/12/14 04:59:27;;;;;;;4.37;2.90;;;-0.70;99.90;;;;;;5139017;28;20407;-80
2021/12/14 05:01:58;;;;;;;3.87;3.40;;;-0.60;99.90;;;;;;5138731;27;20403;-80
2021/12/14 05:04:25;;;;;;;4.23;2.97;;;-0.80;99.90;;;;;;5141579;27;20431;-80
2021/12/14 05:06:56;;;;;;;4.77;3.73;;;-0.80;99.90;;;;;;5141856;27;20459;-80
2021/12/14 05:09:29;;;;;;;5.47;3.30;;;0.70;99.90;;;;;;5141255;28;20405;-80
2021/12/14 05:12:08;;;;;;;4.20;3.40;;;-0.80;99.90;;;;;;5142771;27;20411;-80
2021/12/14 05:14:36;;;;;;;3.97;3.27;;;-0.70;99.90;;;;;;5140283;28;20440;-80
2021/12/14 05:17:08;;;;;;;4.83;3.30;;;-0.60;99.90;;;;;;5139369;27;20423;-79
2021/12/14 05:19:37;;;;;;;2.90;2.50;;;-0.60;99.90;;;;;;5140049;28;20397;-80
2021/12/14 05:22:18;;;;;;;4.27;3.20;;;-0.50;99.90;;;;;;5138628;28;20427;-79
2021/12/14 05:24:49;;;;;;;5.40;3.53;;;-0.50;99.90;;;;;;5139464;28;20427;-79
2021/12/14 05:27:19;;;;;;;2.67;2.23;;;-0.40;99.90;;;;;;5142770;27;20444;-79
2021/12/14 05:29:45;;;;;;;3.17;2.87;;;-0.40;99.90;;;;;;5142430;27;20411;-79
2021/12/14 05:32:15;;;;;;;3.27;2.47;;;;;;;;;;5144168;27;20410;-79
2021/12/14 05:34:41;;;;;;;3.20;2.73;;;-0.40;99.90;;;;;;5141818;27;20956;-79
2021/12/14 05:37:11;;;;;;;2.20;2.00;;;-0.40;99.90;;;;;;5143289;27;20414;-80
2021/12/14 05:39:49;;;;;;;2.00;1.87;;;1.20;99.90;;;;;;5142036;27;20977;-79
2021/12/14 05:45:12;;;;;;;2.93;2.40;;;-0.40;99.90;;;;;;5143252;27;20488;-79
2021/12/14 05:47:49;;;;;;;2.80;2.43;;;-0.40;99.90;;;;;;5142037;27;20456;-79
2021/12/14 05:50:19;;;;;;;3.17;2.73;;;-0.40;99.90;;;;;;5141660;27;20866;-79
2021/12/14 05:52:45;;;;;;;2.47;2.13;;;-0.40;99.90;;;;;;5141506;27;20522;-79
2021/12/14 05:55:11;;;;;;;5.13;2.53;;;-0.40;99.90;;;;;;5140965;27;20462;-79
2021/12/14 05:57:37;;;;;;;4.30;2.77;;;0.20;99.90;;;;;;5143393;27;20169;-79
2021/12/14 06:00:05;;;;;;;2.87;2.57;;;-0.40;99.90;;;;;;5142785;27;20418;-79
2021/12/14 06:02:31;;;;;;;3.10;2.40;;;-0.50;99.90;;;;;;5142706;27;20181;-79
2021/12/14 06:04:56;;;;;;;5.07;2.90;;;-0.60;99.90;;;;;;5141977;27;20420;-79
2021/12/14 06:07:24;;;;;;;4.17;2.93;;;-0.60;99.90;;;;;;5139767;27;20199;-79
2021/12/14 06:09:51;;;;;;;3.90;2.77;;;;;;;;;;5140739;27;20638;-79
2021/12/14 06:12:27;;;;;;;4.37;3.37;;;-0.60;99.90;;;;;;5142411;27;20415;-79
2021/12/14 06:14:57;;;;;;;3.03;2.43;;;-0.60;99.90;;;;;;5143380;27;20507;-79
2021/12/14 06:17:30;;;;;;;4.03;3.33;;;-0.40;99.90;;;;;;5141454;27;20520;-79
2021/12/14 06:20:20;;;;;;;4.07;3.20;;;-0.40;99.90;;;;;;5141704;27;20412;-79
2021/12/14 06:22:47;;;;;;;5.17;3.33;;;-0.70;99.90;;;;;;5143080;27;20423;-79
2021/12/14 06:25:16;;;;;;;4.27;3.20;;;-0.60;99.90;;;;;;5140581;27;20883;-79
2021/12/14 06:27:45;;;;;;;4.50;3.63;;;-0.60;99.90;;;;;;5140728;27;20492;-79
2021/12/14 06:30:19;;;;;;;4.10;3.50;;;-0.70;99.90;;;;;;5139553;27;20409;-79
2021/12/14 06:32:55;;;;;;;6.53;3.63;;;-0.70;99.90;;;;;;5139236;27;20818;-79
2021/12/14 06:35:35;;;;;;;3.53;2.93;;;-0.70;99.90;;;;;;5139063;27;20423;-79
2021/12/14 06:40:46;;;;;;;6.63;3.27;;;-0.90;99.90;;;;;;5139989;27;20383;-79
2021/12/14 06:43:22;;;;;;;6.00;2.97;;;-0.80;99.90;;;;;;5139810;27;20877;-79
2021/12/14 06:45:55;;;;;;;7.73;3.27;;;-0.70;99.90;;;;;;5139035;27;20456;-78
2021/12/14 06:48:43;;;;;;;5.93;3.47;;;-0.70;99.90;;;;;;5139531;27;20439;-78
2021/12/14 06:51:22;;;;;;;3.70;3.03;;;-0.60;99.90;;;;;;5137085;27;20465;-79
2021/12/14 06:53:53;;;;;;;5.57;3.77;;;-0.90;99.90;;;;;;5139379;27;20421;-78
2021/12/14 06:56:25;;;;;;;5.17;3.33;;;-0.80;99.90;;;;;;5137569;27;20460;-79
2021/12/14 06:59:06;;;;;;;7.43;3.73;;;-0.60;99.90;;;;;;5138230;27;20460;-79
2021/12/14 07:01:36;;;;;;;5.47;3.63;;;-0.60;99.90;;;;;;5138837;27;20786;-78
2021/12/14 07:04:08;;;;;;;5.43;3.47;;;-0.50;99.90;;;;;;5138673;27;20762;-79
2021/12/14 07:06:39;;;;;;;5.63;3.03;;;-0.40;99.90;;;;;;5138664;27;20423;-79
2021/12/14 07:09:16;;;;;;;4.33;3.40;;;-0.40;99.90;;;;;;5137855;27;20418;-78
2021/12/14 07:11:47;;;;;;;5.17;3.10;;;-0.30;99.90;;;;;;5139055;27;20391;-79
2021/12/14 07:14:32;;;;;;;3.40;2.83;;;-0.20;99.90;;;;;;5137802;27;20494;-78
2021/12/14 07:17:20;;;;;;;5.87;2.73;;;-0.10;99.90;;;;;;5138776;27;20393;-79
2021/12/14 07:19:53;;;;;;;2.97;2.03;;;-0.10;99.90;;;;;;5139494;27;20403;-79
2021/12/14 07:22:26;;;;;;;3.63;3.27;;;-0.10;99.90;;;;;;5139904;27;20450;-79
2021/12/14 07:25:03;;;;;;;5.67;2.90;;;-0.10;99.90;;;;;;5139384;27;20555;-79
2021/12/14 07:27:40;;;;;;;3.10;2.60;;;-0.10;99.90;;;;;;5141405;27;20507;-79
2021/12/14 07:30:18;;;;;;;3.60;3.30;;;-0.20;99.90;;;;;;5141892;27;20402;-78
2021/12/14 07:32:49;;;;;;;3.07;2.50;;;-0.10;99.90;;;;;;5140171;27;21002;-79
2021/12/14 07:35:35;;;;;;;3.40;2.50;;;0.00;99.90;;;;;;5139247;27;20431;-78
2021/12/14 07:38:24;;;;;;;3.67;2.93;;;0.10;99.90;;;;;;5139094;27;20407;-79
2021/12/14 07:40:54;;;;;;;4.27;2.47;;;0.10;99.90;;;;;;5137711;27;20414;-79
2021/12/14 07:43:27;;;;;;;3.07;2.50;;;0.20;99.90;;;;;;5139748;27;20393;-79
2021/12/14 07:45:54;;;;;;;2.37;2.17;;;0.30;99.90;;;;;;5137578;27;20431;-79
2021/12/14 07:48:36;;;;;;;3.00;2.40;;;0.40;99.90;;;;;;5137557;27;20487;-79
2021/12/14 07:51:02;;;;;;;2.83;2.53;;;0.40;99.90;;;;;;5139148;27;20780;-79
2021/12/14 07:53:43;;;;;;;3.17;2.47;;;0.60;99.90;;;;;;5138681;27;20419;-79
2021/12/14 07:56:32;;;;;;;3.87;2.80;;;0.70;99.90;;;;;;5138499;27;20198;-79
2021/12/14 07:58:59;;;;;;;4.20;3.27;;;0.70;99.90;;;;;;5137810;27;20405;-79
2021/12/14 08:01:26;;;;;;;4.40;3.30;;;0.90;99.90;;;;;;5136863;27;20959;-79
2021/12/14 08:04:05;;;;;;;4.73;4.03;;;0.90;99.90;;;;;;5137707;27;20460;-79
2021/12/14 08:07:04;;;;;;;3.73;3.20;;;0.90;99.90;;;;;;5137061;27;20423;-79
2021/12/14 08:09:45;;;;;;;5.53;3.07;;;0.90;99.90;;;;;;5104597;27;20429;-79
2021/12/14 08:12:34;;;;;;;6.30;3.03;;;0.80;99.90;;;;;;5137428;27;20795;-79
2021/12/14 08:15:13;;;;;;;2.93;2.70;;;0.90;99.90;;;;;;5138522;27;20432;-79
2021/12/14 08:17:39;;;;;;;2.97;2.67;;;1.00;99.90;;;;;;5138935;27;20389;-79
2021/12/14 08:20:09;;;;;;;5.03;2.70;;;1.00;99.90;;;;;;5137212;27;20423;-79
2021/12/14 08:22:37;;;;;;;4.73;2.93;;;0.90;99.90;;;;;;5137229;28;20838;-79
2021/12/14 08:25:06;;;;;;;3.97;3.20;;;0.90;99.90;;;;;;5138847;28;20428;-79
2021/12/14 08:27:33;;;;;;;3.93;3.53;;;0.90;99.90;;;;;;5138914;28;20456;-79
2021/12/14 08:30:04;;;;;;;4.97;4.40;;;1.10;99.90;;;;;;5138006;28;20408;-79
2021/12/14 08:32:33;;;;;;;4.77;3.80;;;1.20;99.90;;;;;;5138147;27;20392;-79
2021/12/14 08:35:01;;;;;;;3.90;3.50;;;1.40;99.90;;;;;;5138358;27;20819;-79
2021/12/14 08:37:32;;;;;;;4.47;3.20;;;1.50;99.90;;;;;;5138338;28;20408;-79
2021/12/14 08:40:04;;;;;;;5.23;3.50;;;1.70;99.90;;;;;;5136856;28;20465;-79
2021/12/14 08:42:42;;;;;;;5.57;3.40;;;1.70;99.90;;;;;;5138054;28;20495;-79
2021/12/14 08:45:26;;;;;;;3.90;3.33;;;1.70;99.90;;;;;;5138356;27;20522;-79
2021/12/14 08:48:15;;;;;;;7.83;3.63;;;1.50;99.90;;;;;;5137239;28;20512;-79
2021/12/14 08:50:55;;;;;;;3.23;2.70;;;1.50;99.90;;;;;;5127415;28;20423;-79
2021/12/14 08:53:26;;;;;;;8.60;3.27;;;1.30;99.90;;;;;;5139008;28;20425;-79
2021/12/14 08:55:55;;;;;;;7.63;3.17;;;1.30;99.90;;;;;;5139032;28;20444;-79
2021/12/14 08:58:21;;;;;;;7.03;3.10;;;1.30;99.90;;;;;;5138474;28;20464;-80
2021/12/14 09:00:52;;;;;;;6.37;3.33;;;1.30;99.90;;;;;;5139791;27;20431;-80
2021/12/14 09:03:33;;;;;;;5.57;3.10;;;1.40;99.90;;;;;;5144241;27;20389;-79
2021/12/14 09:06:10;;;;;;;2.80;2.53;;;1.50;99.90;;;;;;5142327;27;20471;-80
2021/12/14 09:08:36;;;;;;;5.47;3.37;;;1.60;99.90;;;;;;5143097;27;20456;-79
2021/12/14 09:11:04;;;;;;;3.53;3.23;;;1.90;99.90;;;;;;5143378;27;20416;-80
2021/12/14 09:13:30;;;;;;;3.20;2.80;;;2.20;99.90;;;;;;5142635;27;20430;-79
2021/12/14 09:16:22;;;;;;;3.67;3.20;;;2.50;99.90;;;;;;5143228;27;20913;-80
2021/12/14 09:18:52;;;;;;;2.63;2.43;;;2.70;99.90;;;;;;5143506;27;20195;-80
2021/12/14 09:21:24;;;;;;;2.70;2.27;;;2.90;99.90;;;;;;5141852;27;20416;-80
2021/12/14 09:23:57;;;;;;;2.57;2.23;;;3.30;99.90;;;;;;5141713;27;20756;-79
2021/12/14 09:26:28;;;;;;;3.93;2.07;;;3.40;99.90;;;;;;5140932;27;20419;-80
2021/12/14 09:28:54;;;;;;;2.53;2.13;;;3.50;99.90;;;;;;5142837;27;20398;-80
2021/12/14 09:31:27;;;;;;;3.17;2.77;;;3.50;99.90;;;;;;5141086;27;20412;-80
2021/12/14 09:33:57;;;;;;;3.80;2.63;;;3.60;99.90;;;;;;5143207;27;20396;-79
2021/12/14 09:36:23;;;;;;;2.90;2.60;;;3.60;99.90;;;;;;5142474;27;20412;-80
2021/12/14 09:38:55;;;;;;;3.47;2.50;;;3.80;99.90;;;;;;5143647;27;20770;-80
2021/12/14 09:41:26;;;;;;;2.77;2.20;;;4.20;99.90;;;;;;5142466;27;20400;-80
2021/12/14 09:43:54;;;;;;;2.37;1.90;;;4.50;99.90;;;;;;5143652;27;20404;-80
2021/12/14 09:46:21;;;;;;;2.63;2.00;;;4.80;99.90;;;;;;5143198;27;20405;-80
2021/12/14 09:48:50;;;;;;;1.83;1.60;;;5.10;99.90;;;;;;5144303;27;20456;-79
2021/12/14 09:51:21;;;;;;;2.70;1.93;;;5.20;99.90;;;;;;5145207;27;20170;-79
2021/12/14 09:53:50;;;;;;;2.57;1.83;;;5.60;99.90;;;;;;5143420;27;20397;-79
2021/12/14 09:56:18;;;;;;;3.40;2.63;;;5.60;99.90;;;;;;5139944;27;20190;-80
2021/12/14 09:58:53;;;;;;;3.37;2.60;;;5.90;99.90;;;;;;5140532;27;20615;-79
2021/12/14 10:01:42;;;;;;;4.03;2.40;;;6.10;99.90;;;;;;5140878;27;20166;-80
2021/12/14 10:04:17;;;;;;;2.47;1.90;;;6.30;99.90;;;;;;5142552;27;20208;-80
2021/12/14 10:06:43;;;;;;;3.13;2.20;;;6.60;99.90;;;;;;5141641;27;20186;-79
2021/12/14 10:09:20;;;;;;;2.63;1.97;;;6.80;99.90;;;;;;5140361;27;20165;-80
2021/12/14 10:12:14;;;;;;;2.90;2.10;;;7.10;99.90;;;;;;5138675;27;20208;-80
2021/12/14 10:14:40;;;;;;;3.50;2.33;;;6.70;99.90;;;;;;5138289;27;20719;-80
2021/12/14 10:17:10;;;;;;;2.97;2.23;;;6.00;99.90;;;;;;5136890;27;20171;-80
2021/12/14 10:19:36;;;;;;;2.17;1.90;;;5.70;99.90;;;;;;5140214;27;20175;-80
2021/12/14 10:22:11;;;;;;;2.93;2.00;;;6.10;99.90;;;;;;5140667;27;20243;-81
2021/12/14 10:24:37;;;;;;;3.57;2.07;;;6.80;99.90;;;;;;5142504;27;20205;-81
2021/12/14 10:27:10;;;;;;;2.90;1.90;;;6.90;99.90;;;;;;5140934;27;20201;-80
2021/12/14 10:29:36;;;;;;;3.20;1.93;;;6.60;99.90;;;;;;5142985;27;20183;-81
2021/12/14 10:32:16;;;;;;;4.10;1.70;;;6.50;99.90;;;;;;5143624;27;20177;-80
2021/12/14 10:34:49;;;;;;;1.70;1.60;;;6.70;99.90;;;;;;5141145;27;20194;-80
2021/12/14 10:37:50;;;;;;;6.10;4.23;;;6.40;99.90;;;;;;5141809;27;20681;-80
2021/12/14 10:43:12;;;;;;;3.57;2.30;;;6.00;99.90;;;;;;5142986;27;20231;-80
2021/12/14 10:45:41;;;;;;;2.27;1.97;;;5.80;99.90;;;;;;5141146;27;20199;-81
2021/12/14 10:48:09;;;;;;;2.23;2.03;;;5.80;99.90;;;;;;5142682;27;20199;-81
2021/12/14 10:50:36;;;;;;;4.53;3.20;;;5.80;99.90;;;;;;5141852;27;20613;-80
2021/12/14 10:53:05;;;;;;;4.83;2.73;;;5.80;99.90;;;;;;5140349;27;20269;-81
2021/12/14 10:55:42;;;;;;;4.67;2.97;;;5.80;99.90;;;;;;5141937;27;20254;-81
2021/12/14 10:58:09;;;;;;;5.07;2.27;;;5.70;99.90;;;;;;5140481;27;20186;-80
2021/12/14 11:00:45;;;;;;;3.13;2.37;;;5.80;99.90;;;;;;5141490;27;20171;-80
2021/12/14 11:03:18;;;;;;;4.87;3.07;;;5.90;99.90;;;;;;5142041;27;20242;-80
2021/12/14 11:05:51;;;;;;;6.87;2.77;;;6.00;99.90;;;;;;5141106;27;20207;-80
2021/12/14 11:08:32;;;;;;;4.30;2.93;;;6.00;99.90;;;;;;5141855;27;20281;-80
2021/12/14 11:10:58;;;;;;;3.97;3.27;;;6.10;99.90;;;;;;5141590;27;20167;-80
2021/12/14 11:13:24;;;;;;;5.63;3.00;;;6.20;99.90;;;;;;5143210;27;20177;-80
2021/12/14 11:15:54;;;;;;;9.93;3.23;;;6.20;99.90;;;;;;5142274;27;20274;-81
2021/12/14 11:18:27;;;;;;;5.33;4.10;;;6.30;99.90;;;;;;5141880;27;20180;-81
2021/12/14 11:21:12;;;;;;;4.93;3.63;;;6.30;99.90;;;;;;5142456;27;20637;-81
2021/12/14 11:23:46;;;;;;;8.23;3.50;;;6.40;99.90;;;;;;5140253;27;20583;-81
2021/12/14 11:26:17;;;;;;;8.33;5.10;;;6.40;99.90;;;;;;5140682;27;20737;-81
2021/12/14 11:28:50;;;;;;;7.67;5.07;;;6.40;99.90;;;;;;5140695;27;20285;-81
2021/12/14 11:31:30;;;;;;;12.80;7.03;;;6.20;99.90;;;;;;5140126;27;20193;-81
2021/12/14 11:33:58;;;;;;;19.70;9.20;;;6.00;99.90;;;;;;5140693;27;20175;-81
2021/12/14 11:36:35;;;;;;;10.50;5.50;;;6.00;99.90;;;;;;5140230;27;20752;-81
2021/12/14 11:39:26;;;;;;;4.93;3.50;;;5.90;99.90;;;;;;5140269;27;20167;-81
2021/12/14 11:42:05;;;;;;;20.00;9.57;;;5.90;99.90;;;;;;5140580;27;20152;-82
2021/12/14 11:44:45;;;;;;;12.93;7.07;;;5.70;99.90;;;;;;5141672;27;20212;-82
2021/12/14 11:47:40;;;;;;;17.53;6.90;;;5.60;99.90;;;;;;5141602;27;20191;-81
2021/12/14 11:50:11;;;;;;;11.53;4.63;;;5.60;99.90;;;;;;5141529;27;20262;-82
2021/12/14 11:52:52;;;;;;;6.77;4.57;;;5.60;99.90;;;;;;5141407;27;20170;-81
2021/12/14 11:55:41;;;;;;;7.50;4.10;;;5.60;99.90;;;;;;5140190;27;20201;-82
2021/12/14 11:58:24;;;;;;;6.23;3.90;;;5.50;99.90;;;;;;5139401;27;20413;-81
2021/12/14 12:01:12;;;;;;;4.27;3.30;;;5.50;99.90;;;;;;5139679;27;20171;-81
2021/12/14 12:03:37;;;;;;;4.03;3.20;;;5.60;99.90;;;;;;5141382;27;20416;-81
2021/12/14 12:09:35;;;;;;;4.23;3.00;;;5.70;99.90;;;;;;5144718;27;20315;-82
2021/12/14 12:12:03;;;;;;;5.40;3.73;;;5.90;99.90;;;;;;5136631;27;20409;-81
2021/12/14 12:14:41;;;;;;;7.10;4.50;;;6.00;99.90;;;;;;5140671;27;20260;-81
2021/12/14 12:17:48;;;;;;;4.87;3.80;;;6.00;99.90;;;;;;5141038;27;20385;-81
2021/12/14 12:20:27;;;;;;;3.40;3.10;;;6.10;99.90;;;;;;5140633;27;20189;-82
2021/12/14 12:23:12;;;;;;;4.20;3.50;;;6.20;99.90;;;;;;5140621;27;20248;-81
2021/12/14 12:25:49;;;;;;;3.03;2.27;;;6.30;99.90;;;;;;5138597;28;20706;-81
2021/12/14 12:28:17;;;;;;;2.70;2.30;;;6.30;99.90;;;;;;5140401;28;20198;-81
2021/12/14 12:31:00;;;;;;;2.30;2.10;;;6.40;99.90;;;;;;5140333;28;20408;-81
2021/12/14 12:33:48;;;;;;;2.20;1.87;;;6.40;99.90;;;;;;5139163;28;20965;-81
2021/12/14 12:36:28;;;;;;;2.73;1.97;;;6.40;99.90;;;;;;5143077;27;20615;-81
2021/12/14 12:39:06;;;;;;;2.97;2.60;;;6.30;99.90;;;;;;5143475;27;20404;-81
2021/12/14 12:41:49;;;;;;;3.60;2.90;;;6.30;99.90;;;;;;5145026;27;20250;-81
2021/12/14 12:44:37;;;;;;;30.40;18.50;;;6.20;99.90;;;;;;5143341;27;20206;-81
2021/12/14 12:47:09;;;;;;;17.87;12.20;;;6.10;99.90;;;;;;5143429;27;20191;-81
2021/12/14 12:49:44;;;;;;;12.53;5.90;;;6.10;99.90;;;;;;5142045;27;20164;-80
2021/12/14 12:52:12;;;;;;;8.90;4.00;;;6.20;99.90;;;;;;5142475;27;20162;-79
2021/12/14 12:54:58;;;;;;;7.23;4.03;;;6.30;99.90;;;;;;5141820;27;20195;-80
2021/12/14 12:57:43;;;;;;;5.27;3.37;;;6.30;99.90;;;;;;5143682;27;20690;-79
2021/12/14 13:00:21;;;;;;;7.67;4.97;;;6.30;99.90;;;;;;5143352;27;20159;-80
2021/12/14 13:02:58;;;;;;;3.43;2.90;;;6.30;99.90;;;;;;5141755;27;20186;-79
2021/12/14 13:05:31;;;;;;;7.67;4.40;;;6.30;99.90;;;;;;5141612;27;20460;-79
2021/12/14 13:08:08;;;;;;;6.37;5.73;;;6.40;99.90;;;;;;5141864;27;20199;-79
2021/12/14 13:10:42;;;;;;;4.20;3.30;;;6.30;99.90;;;;;;5142327;27;20209;-79
2021/12/14 13:13:11;;;;;;;3.70;2.77;;;6.30;99.90;;;;;;5142094;27;20170;-79
2021/12/14 13:15:44;;;;;;;4.33;2.77;;;6.10;99.90;;;;;;5142366;27;20198;-79
2021/12/14 13:18:20;;;;;;;5.90;3.07;;;6.10;99.90;;;;;;5141859;27;20166;-79
2021/12/14 13:20:48;;;;;;;5.07;3.60;;;6.10;99.90;;;;;;5139683;27;20539;-79
2021/12/14 13:23:15;;;;;;;4.60;3.60;;;6.10;99.90;;;;;;5139505;27;20178;-79
2021/12/14 13:25:43;;;;;;;4.53;3.43;;;6.10;99.90;;;;;;5140158;27;20432;-79
2021/12/14 13:28:10;;;;;;;7.80;3.30;;;6.10;99.90;;;;;;5137483;27;20748;-78
2021/12/14 13:30:36;;;;;;;4.60;2.70;;;6.20;99.90;;;;;;5138096;27;20753;-79
2021/12/14 13:33:01;;;;;;;4.60;3.10;;;6.20;99.90;;;;;;5138298;27;20178;-79
2021/12/14 13:35:32;;;;;;;5.47;3.30;;;6.10;99.90;;;;;;5142998;27;20226;-80
2021/12/14 13:38:07;;;;;;;4.93;3.90;;;6.00;99.90;;;;;;5141776;27;20183;-79
2021/12/14 13:40:36;;;;;;;3.50;3.10;;;6.00;99.90;;;;;;5142606;27;20262;-79
2021/12/14 13:43:11;;;;;;;4.03;3.50;;;6.00;99.90;;;;;;5142697;27;20408;-79
2021/12/14 13:45:45;;;;;;;5.30;3.90;;;6.10;99.90;;;;;;5142287;27;20198;-79
2021/12/14 13:48:14;;;;;;;5.77;3.13;;;6.20;99.90;;;;;;5139948;27;20198;-79
2021/12/14 13:50:47;;;;;;;6.40;3.57;;;6.40;99.90;;;;;;5140789;27;20699;-79
2021/12/14 13:53:13;;;;;;;5.70;3.93;;;6.60;99.90;;;;;;5143407;27;20158;-80
2021/12/14 13:55:42;;;;;;;5.27;4.03;;;6.60;99.90;;;;;;5141266;27;20206;-79
2021/12/14 13:58:19;;;;;;;4.53;3.53;;;6.60;99.90;;;;;;5140869;27;20183;-80
2021/12/14 14:00:55;;;;;;;4.53;4.00;;;6.60;99.90;;;;;;5140730;27;20179;-79
2021/12/14 14:03:28;;;;;;;5.87;4.30;;;6.50;99.90;;;;;;5141305;27;20228;-79
2021/12/14 14:05:54;;;;;;;6.60;4.83;;;6.40;99.90;;;;;;5140170;27;20301;-79